| time (UTC) | temp C | wind direction | speed KPH | gust KPH | rain 1hr cm | rain 24hr cm | rain mn cm | humidity % | barometer mb |
| 20260510141527 | 20 | 102 | 3.2 | 6.4 | 0.00 | 1.37 | 0.00 | 93 | 1017.7 |
| 20260510140014 | 20 | 113 | 1.6 | 4.8 | 0.00 | 1.55 | 0.00 | 95 | 1017.7 |
| 20260510134522 | 19 | 82 | 1.6 | 4.8 | 0.00 | 1.70 | 0.00 | 96 | 1017.7 |
| 20260510133025 | 18 | 86 | 1.6 | 4.8 | 0.00 | 1.91 | 0.00 | 97 | 1017.6 |
| 20260510131525 | 18 | 68 | 0.0 | 3.2 | 0.00 | 2.08 | 0.00 | 97 | 1017.4 |
| 20260510130032 | 18 | 41 | 1.6 | 4.8 | 0.00 | 2.31 | 0.00 | 97 | 1017.3 |
| 20260510124518 | 17 | 88 | 0.0 | 1.6 | 0.00 | 2.64 | 0.00 | 97 | 1017.0 |
| 20260510123020 | 17 | 89 | 0.0 | 1.6 | 0.00 | 3.40 | 0.00 | 97 | 1016.8 |
| 20260510121526 | 17 | 88 | 0.0 | 3.2 | 0.00 | 4.11 | 0.00 | 97 | 1016.6 |
| 20260510120032 | 16 | 175 | 0.0 | 0.0 | 0.00 | 4.47 | 0.00 | 97 | 1016.1 |
| 20260510114530 | 16 | 175 | 0.0 | 0.0 | 0.00 | 4.78 | 0.00 | 97 | 1015.9 |
| 20260510113028 | 16 | 175 | 0.0 | 0.0 | 0.00 | 5.05 | 0.00 | 97 | 1015.6 |
| 20260510111503 | 16 | 175 | 0.0 | 0.0 | 0.00 | 5.11 | 0.00 | 97 | 1015.2 |
| 20260510110010 | 16 | 175 | 0.0 | 0.0 | 0.00 | 5.23 | 0.00 | 97 | 1015.0 |
| 20260510104513 | 16 | 175 | 0.0 | 0.0 | 0.00 | 5.23 | 0.00 | 97 | 1014.7 |
| 20260510103018 | 16 | 175 | 0.0 | 0.0 | 0.00 | 5.23 | 0.00 | 97 | 1014.6 |
| 20260510101525 | 16 | 175 | 0.0 | 0.0 | 0.00 | 5.23 | 0.00 | 97 | 1014.4 |
| 20260510100005 | 16 | 175 | 0.0 | 0.0 | 0.00 | 5.23 | 0.00 | 97 | 1014.5 |
| 20260510094508 | 16 | 175 | 0.0 | 0.0 | 0.00 | 5.23 | 0.00 | 97 | 1014.3 |
| 20260510093016 | 16 | 175 | 0.0 | 0.0 | 0.00 | 5.23 | 0.00 | 97 | 1014.3 |
| 20260510091540 | 16 | 175 | 0.0 | 0.0 | 0.00 | 5.23 | 0.00 | 97 | 1014.2 |
| 20260510090022 | 17 | 175 | 0.0 | 0.0 | 0.00 | 5.23 | 0.00 | 97 | 1014.2 |
| 20260510084507 | 17 | 175 | 0.0 | 0.0 | 0.00 | 5.23 | 0.00 | 97 | 1014.1 |
| 20260510083015 | 17 | 175 | 0.0 | 0.0 | 0.00 | 5.23 | 0.00 | 97 | 1014.1 |
| 20260510081529 | 17 | 175 | 0.0 | 0.0 | 0.00 | 5.23 | 0.00 | 97 | 1014.1 |
| 20260510080022 | 17 | 175 | 0.0 | 0.0 | 0.00 | 5.26 | 0.00 | 97 | 1014.0 |
| 20260510074524 | 17 | 175 | 0.0 | 0.0 | 0.00 | 5.26 | 0.00 | 97 | 1014.0 |
| 20260510073011 | 17 | 175 | 0.0 | 0.0 | 0.00 | 5.26 | 0.00 | 97 | 1013.7 |
| 20260510071517 | 17 | 175 | 0.0 | 0.0 | 0.00 | 5.26 | 0.00 | 97 | 1013.5 |
| 20260510070024 | 18 | 175 | 0.0 | 0.0 | 0.00 | 5.26 | 0.00 | 97 | 1013.6 |
| 20260510064546 | 18 | 175 | 0.0 | 0.0 | 0.00 | 5.26 | 0.00 | 97 | 1013.9 |
| 20260510063038 | 18 | 175 | 0.0 | 0.0 | 0.00 | 5.26 | 0.00 | 97 | 1014.0 |
| 20260510061519 | 18 | 175 | 0.0 | 0.0 | 0.00 | 5.26 | 0.00 | 97 | 1013.9 |
| 20260510060028 | 18 | 174 | 0.0 | 0.0 | 0.00 | 5.26 | 0.00 | 97 | 1014.0 |
| 20260510054524 | 18 | 120 | 0.0 | 1.6 | 0.00 | 5.28 | 0.00 | 97 | 1013.7 |
| 20260510053027 | 18 | 115 | 0.0 | 1.6 | 0.00 | 5.28 | 0.00 | 97 | 1013.9 |
| 20260510051528 | 18 | 250 | 0.0 | 1.6 | 0.00 | 5.28 | 0.00 | 97 | 1014.1 |
| 20260510050016 | 18 | 250 | 0.0 | 1.6 | 0.00 | 5.28 | 0.00 | 97 | 1014.2 |
| 20260510044518 | 18 | 37 | 0.0 | 1.6 | 0.00 | 5.28 | 5.28 | 97 | 1013.9 |
| 20260510043022 | 18 | 38 | 3.2 | 4.8 | 0.00 | 5.28 | 5.28 | 97 | 1013.5 |
| 20260510041525 | 18 | 63 | 1.6 | 1.6 | 0.00 | 5.28 | 5.28 | 97 | 1014.1 |
| 20260510040027 | 18 | 128 | 0.0 | 1.6 | 0.00 | 5.28 | 5.28 | 97 | 1014.3 |
| 20260510034516 | 18 | 128 | 0.0 | 1.6 | 0.00 | 5.28 | 5.28 | 97 | 1014.4 |
| 20260510033021 | 18 | 100 | 0.0 | 1.6 | 0.00 | 5.28 | 5.28 | 97 | 1014.6 |
| 20260510031532 | 18 | 92 | 0.0 | 1.6 | 0.00 | 5.28 | 5.28 | 97 | 1014.7 |
| 20260510030027 | 18 | 91 | 0.0 | 1.6 | 0.00 | 5.28 | 5.28 | 96 | 1014.6 |
| 20260510024533 | 18 | 91 | 0.0 | 1.6 | 0.00 | 5.28 | 5.28 | 96 | 1014.2 |
| 20260510023016 | 18 | 82 | 3.2 | 4.8 | 0.00 | 5.28 | 5.28 | 96 | 1014.0 |
| 20260510021522 | 18 | 89 | 1.6 | 3.2 | 0.00 | 5.28 | 5.28 | 96 | 1014.0 |
| 20260510020028 | 18 | 330 | 0.0 | 3.2 | 0.00 | 5.28 | 5.28 | 96 | 1014.1 |
| 20260510014507 | 18 | 99 | 0.0 | 4.8 | 0.03 | 5.28 | 5.28 | 96 | 1014.2 |
| 20260510013020 | 18 | 243 | 0.0 | 3.2 | 0.05 | 5.28 | 5.28 | 96 | 1013.9 |
| 20260510011522 | 18 | 203 | 1.6 | 4.8 | 0.05 | 5.28 | 5.28 | 96 | 1013.8 |
| 20260510010024 | 18 | 82 | 0.0 | 4.8 | 0.13 | 5.28 | 5.28 | 96 | 1012.5 |
| 20260510004530 | 18 | 233 | 1.6 | 4.8 | 0.15 | 5.28 | 5.26 | 96 | 1012.6 |
| 20260510003013 | 18 | 348 | 0.0 | 1.6 | 0.15 | 5.28 | 5.23 | 96 | 1013.3 |
| 20260510001516 | 18 | 174 | 0.0 | 3.2 | 0.15 | 5.31 | 5.23 | 96 | 1013.6 |
| 20260510000019 | 18 | 223 | 0.0 | 3.2 | 0.10 | 5.28 | 5.16 | 96 | 1013.4 |
| 20260509234536 | 18 | 245 | 0.0 | 1.6 | 0.05 | 5.23 | 5.11 | 95 | 1013.1 |
| 20260509233011 | 18 | 245 | 0.0 | 1.6 | 0.03 | 5.21 | 5.08 | 95 | 1012.9 |
| 20260509231514 | 18 | 245 | 0.0 | 1.6 | 0.03 | 5.23 | 5.08 | 94 | 1013.0 |
| 20260509230021 | 18 | 229 | 0.0 | 3.2 | 0.00 | 5.26 | 5.05 | 94 | 1013.3 |
| 20260509224525 | 19 | 243 | 0.0 | 6.4 | 0.00 | 5.31 | 5.05 | 94 | 1013.3 |
| 20260509223032 | 19 | 246 | 1.6 | 6.4 | 0.00 | 5.41 | 5.05 | 94 | 1013.2 |
| 20260509221512 | 19 | 58 | 0.0 | 1.6 | 0.00 | 5.46 | 5.05 | 95 | 1012.6 |
| 20260509220019 | 19 | 287 | 0.0 | 1.6 | 0.00 | 5.51 | 5.05 | 95 | 1012.5 |
| 20260509214521 | 19 | 287 | 0.0 | 1.6 | 0.00 | 5.54 | 5.05 | 95 | 1012.4 |
| 20260509213027 | 19 | 240 | 0.0 | 3.2 | 0.00 | 5.64 | 5.05 | 94 | 1012.1 |
| 20260509211526 | 19 | 349 | 0.0 | 1.6 | 0.03 | 5.77 | 5.05 | 95 | 1011.9 |
| 20260509210014 | 19 | 122 | 0.0 | 3.2 | 0.03 | 5.84 | 5.05 | 95 | 1011.7 |
| 20260509204518 | 18 | 279 | 0.0 | 1.6 | 0.03 | 5.97 | 5.05 | 95 | 1012.4 |
| 20260509203034 | 18 | 223 | 0.0 | 3.2 | 0.03 | 6.15 | 5.05 | 95 | 1012.5 |
| 20260509201526 | 18 | 209 | 4.8 | 8.0 | 0.00 | 6.22 | 5.03 | 94 | 1013.1 |
| 20260509200026 | 18 | 227 | 3.2 | 8.0 | 0.00 | 6.35 | 5.03 | 94 | 1012.9 |
| 20260509194517 | 18 | 250 | 3.2 | 6.4 | 0.00 | 6.48 | 5.03 | 94 | 1013.1 |
| 20260509193022 | 18 | 227 | 1.6 | 6.4 | 0.00 | 6.60 | 5.03 | 94 | 1012.7 |
| 20260509191524 | 18 | 230 | 1.6 | 4.8 | 0.00 | 6.76 | 5.03 | 94 | 1013.0 |
| 20260509190032 | 18 | 283 | 0.0 | 3.2 | 0.03 | 7.16 | 5.03 | 94 | 1013.0 |
| 20260509184538 | 18 | 249 | 1.6 | 8.0 | 0.03 | 7.54 | 5.03 | 93 | 1013.0 |
| 20260509183029 | 18 | 231 | 0.0 | 8.0 | 0.03 | 7.57 | 5.03 | 94 | 1013.0 |
| 20260509181523 | 18 | 221 | 1.6 | 3.2 | 0.03 | 7.65 | 5.03 | 94 | 1013.1 |
| 20260509180027 | 18 | 243 | 1.6 | 8.0 | 0.00 | 7.62 | 5.00 | 94 | 1013.2 |
| 20260509174528 | 18 | 234 | 0.0 | 4.8 | 0.05 | 7.62 | 5.00 | 95 | 1013.1 |
| 20260509173030 | 18 | 229 | 0.0 | 1.6 | 0.05 | 7.62 | 5.00 | 95 | 1013.0 |
| 20260509171529 | 18 | 247 | 0.0 | 4.8 | 0.08 | 7.62 | 5.00 | 96 | 1013.0 |
| 20260509170006 | 17 | 26 | 0.0 | 4.8 | 0.10 | 7.62 | 5.00 | 96 | 1012.7 |
| 20260509164507 | 17 | 75 | 1.6 | 8.0 | 0.10 | 7.57 | 4.95 | 96 | 1013.0 |
| 20260509163016 | 17 | 180 | 3.2 | 6.4 | 0.18 | 7.77 | 4.95 | 96 | 1013.6 |
| 20260509161521 | 17 | 74 | 1.6 | 6.4 | 0.30 | 10.01 | 4.93 | 96 | 1013.2 |
| 20260509160024 | 17 | 248 | 4.8 | 8.0 | 0.41 | 10.11 | 4.90 | 96 | 1014.1 |
| 20260509154504 | 17 | 117 | 3.2 | 8.0 | 0.51 | 10.24 | 4.85 | 96 | 1013.1 |
| 20260509153018 | 17 | 24 | 1.6 | 9.7 | 0.69 | 11.56 | 4.78 | 96 | 1012.9 |
| 20260509151515 | 17 | 84 | 1.6 | 6.4 | 0.71 | 11.46 | 4.62 | 96 | 1013.7 |
| 20260509150020 | 17 | 235 | 0.0 | 6.4 | 0.76 | 11.33 | 4.50 | 96 | 1013.6 |
| 20260509144522 | 17 | 70 | 3.2 | 4.8 | 0.76 | 11.18 | 4.34 | 96 | 1014.0 |
| 20260509143006 | 17 | 84 | 1.6 | 6.4 | 0.71 | 10.92 | 4.09 | 96 | 1013.8 |